Elsenborn, Belgium
Current Conditions -  °F | °C
As of 9:44 PM on Tuesday 25 Nov 2014 (Local Time) from EBLB Reporting Station
Broken Clouds Broken Clouds  
Wind Chill: -2°   Ceiling: 18000
Heat Index:   Visibility: 5mi
Dew Point:   Wind: 9mph
Humidity: 100%   Direction: 140°SE
Pressure: 30.06"   Gusts: NA
Location:  50.46°N, 6.22°E
Report Text: EBLB 252044Z AUTO 14008KT 8000 SCT005/// BKN180/// 02/02 Q1018 YLO
Loading
Personal Weather Stations






























Interactive Weather Map New forecast layout! Learn more

10-Day Weather Forecast

Advertisements
Track Severe Weather on mobile